Inver Grove Heights, MN

1:45 PM CST on January 23, 2017 (GMT -0600)
South Saint Paul Municipal-Fleming

Weather History for KSGS - November, 2012

Change the Weather History Date:

Tuesday, November 27, 2012

  Actual Average (KSTP) Record (KSTP)
Temperature  
Mean Temperature 27 °F -  
Max Temperature 39 °F 36 °F 61 °F (1998)
Min Temperature 15 °F 22 °F -4 °F (1996)
Degree Days  
Heating Degree Days 38    
Moisture  
Dew Point 17 °F    
Average Humidity 68    
Maximum Humidity 81    
Minimum Humidity 56    
Precipitation  
Precipitation 0.00 in - - ()
Sea Level Pressure  
Sea Level Pressure 30.20 in    
Wind  
Wind Speed 4 mph (SSW)    
Max Wind Speed 13 mph    
Max Gust Speed -    
Visibility 10 miles    
Events      
Averages and records for this station are not official NWS values.
T = Trace of Precipitation, MM = Missing Value Source: NWS Daily Summary

Daily Weather History Graph

Daily Weather History Graph

Search for Another Location

Airport or City:

Trip Planner

Search our weather history database for the weather conditions in past years. The results will help you decide how hot, cold, wet, or windy it might be!

Date:

Astronomy

Nov. 27, 2012 Rise Set
Actual Time 7:25 AM CST 4:34 PM CST
Civil Twilight 6:52 AM CST 5:06 PM CST
Nautical Twilight 6:16 AM CST 5:43 PM CST
Astronomical Twilight 5:41 AM CST 6:18 PM CST
Moon 4:06 PM CST (11/27) 6:30 AM CST (11/27)
Length of Visible Light 10h 14m
Length of Day
9h 08m
Waxing Gibbous, 99% of the Moon is Illuminated
Nov 27
Waxing Gibbous
Nov 28
Full
Dec 6
Last Quarter
Dec 13
New
Dec 19
First Quarter

Hourly Weather History & Observations

Time (CST) Temp. Windchill Dew Point Humidity Pressure Visibility Wind Dir Wind Speed Gust Speed Precip Events Conditions
12:12 AM 16.9 °F 11.5 °F 8.4 °F 69% 30.34 in 10.0 mi South 3.5 mph - N/A   Clear
12:32 AM 17.1 °F 11.7 °F 8.4 °F 69% 30.34 in 10.0 mi South 3.5 mph - N/A   Mostly Cloudy
12:52 AM 16.7 °F - 8.4 °F 70% 30.34 in 10.0 mi Calm Calm - N/A   Mostly Cloudy
1:12 AM 16.3 °F - 8.2 °F 70% 30.33 in 10.0 mi Calm Calm - N/A   Scattered Clouds
1:32 AM 16.0 °F - 8.2 °F 72% 30.33 in 10.0 mi Calm Calm - N/A   Scattered Clouds
1:52 AM 15.8 °F - 8.2 °F 72% 30.33 in 10.0 mi Calm Calm - N/A   Clear
2:12 AM 16.0 °F 10.4 °F 8.4 °F 72% 30.33 in 10.0 mi South 3.5 mph - N/A   Scattered Clouds
2:32 AM 16.5 °F - 8.8 °F 72% 30.32 in 10.0 mi Calm Calm - N/A   Overcast
2:52 AM 17.1 °F 11.7 °F 9.3 °F 72% 30.32 in 10.0 mi SSE 3.5 mph - N/A   Overcast
3:12 AM 17.6 °F 12.3 °F 9.5 °F 71% 30.31 in 10.0 mi South 3.5 mph - N/A   Mostly Cloudy
3:52 AM 17.2 °F 10.2 °F 9.5 °F 72% 30.29 in 10.0 mi SSE 4.6 mph - N/A   Clear
4:12 AM 17.1 °F 11.7 °F 9.5 °F 72% 30.28 in 10.0 mi SSE 3.5 mph - N/A   Clear
4:32 AM 17.2 °F 11.9 °F 9.5 °F 72% 30.28 in 10.0 mi South 3.5 mph - N/A   Clear
4:52 AM 17.6 °F 12.3 °F 10.0 °F 72% 30.27 in 10.0 mi SSE 3.5 mph - N/A   Clear
5:12 AM 17.6 °F 12.3 °F 10.2 °F 73% 30.27 in 10.0 mi SSE 3.5 mph - N/A   Clear
5:32 AM 17.6 °F 10.7 °F 10.2 °F 73% 30.27 in 10.0 mi South 4.6 mph - N/A   Clear
5:52 AM 18.0 °F 11.1 °F 10.4 °F 72% 30.26 in 10.0 mi South 4.6 mph - N/A   Clear
6:12 AM 17.6 °F 12.3 °F 10.4 °F 73% 30.26 in 10.0 mi South 3.5 mph - N/A   Clear
6:32 AM 17.6 °F 12.3 °F 10.4 °F 73% 30.26 in 10.0 mi South 3.5 mph - N/A   Clear
6:52 AM 17.4 °F 10.4 °F 10.4 °F 74% 30.25 in 10.0 mi SSE 4.6 mph - N/A   Clear
7:12 AM 17.2 °F 11.9 °F 10.4 °F 75% 30.24 in 10.0 mi South 3.5 mph - N/A   Clear
7:32 AM 17.4 °F 10.4 °F 10.4 °F 74% 30.24 in 10.0 mi SSE 4.6 mph - N/A   Clear
7:52 AM 18.0 °F 12.7 °F 10.8 °F 73% 30.24 in 10.0 mi SSE 3.5 mph - N/A   Clear
8:12 AM 18.5 °F 11.7 °F 10.9 °F 72% 30.24 in 10.0 mi South 4.6 mph - N/A   Clear
8:32 AM 19.4 °F 12.8 °F 11.3 °F 71% 30.23 in 10.0 mi SSE 4.6 mph - N/A   Clear
8:52 AM 21.0 °F 13.4 °F 12.0 °F 68% 30.22 in 10.0 mi South 5.8 mph - N/A   Clear
9:12 AM 23.0 °F 17.0 °F 13.5 °F 67% 30.22 in 10.0 mi South 4.6 mph - N/A   Clear
9:32 AM 23.9 °F 16.8 °F 13.6 °F 65% 30.20 in 10.0 mi South 5.8 mph - N/A   Clear
9:52 AM 25.3 °F 18.5 °F 14.0 °F 62% 30.20 in 10.0 mi SSE 5.8 mph - N/A   Clear
10:12 AM 26.4 °F 18.9 °F 14.9 °F 62% 30.20 in 10.0 mi South 6.9 mph - N/A   Mostly Cloudy
10:32 AM 27.1 °F 19.7 °F 15.1 °F 60% 30.20 in 10.0 mi South 6.9 mph - N/A   Mostly Cloudy
10:52 AM 27.3 °F 19.1 °F 15.4 °F 61% 30.18 in 10.0 mi South 8.1 mph - N/A   Mostly Cloudy
11:12 AM 28.4 °F 21.2 °F 15.8 °F 59% 30.17 in 10.0 mi South 6.9 mph - N/A   Mostly Cloudy
11:32 AM 29.3 °F 21.5 °F 16.7 °F 59% 30.16 in 10.0 mi South 8.1 mph - N/A   Mostly Cloudy
11:52 AM 30.0 °F 23.2 °F 16.9 °F 58% 30.15 in 10.0 mi South 6.9 mph - N/A   Unknown
12:12 PM 31.1 °F 24.5 °F 18.0 °F 58% 30.14 in 10.0 mi South 6.9 mph - N/A   Unknown
12:32 PM 32.2 °F 25.8 °F 19.4 °F 59% 30.13 in 10.0 mi SSW 6.9 mph - N/A   Unknown
12:52 PM 33.8 °F 27.0 °F 20.7 °F 59% 30.12 in 10.0 mi SSW 8.1 mph - N/A   Unknown
1:12 PM 35.4 °F 29.0 °F 21.9 °F 58% 30.12 in 10.0 mi SSW 8.1 mph - N/A   Unknown
1:32 PM 35.8 °F 31.9 °F 22.1 °F 58% 30.10 in 10.0 mi South 4.6 mph - N/A   Unknown
1:52 PM 36.9 °F 28.7 °F 22.8 °F 57% 30.09 in 10.0 mi SSW 12.7 mph - N/A   Unknown
2:12 PM 37.4 °F 30.3 °F 23.0 °F 56% 30.08 in 10.0 mi SSW 10.4 mph - N/A   Unknown
2:32 PM 37.9 °F 33.5 °F 23.5 °F 56% 30.09 in 10.0 mi SW 5.8 mph - N/A   Unknown
2:52 PM 38.3 °F 33.2 °F 23.9 °F 56% 30.08 in 10.0 mi SSW 6.9 mph - N/A   Unknown
3:12 PM 38.5 °F 33.4 °F 23.9 °F 56% 30.08 in 10.0 mi SW 6.9 mph - N/A   Unknown
3:32 PM 39.0 °F 32.8 °F 24.4 °F 56% 30.08 in 10.0 mi SW 9.2 mph - N/A   Unknown
3:52 PM 38.8 °F 33.2 °F 24.4 °F 56% 30.08 in 10.0 mi SW 8.1 mph - N/A   Unknown
4:12 PM 38.5 °F 32.1 °F 24.8 °F 58% 30.09 in 10.0 mi SW 9.2 mph - N/A   Unknown
4:32 PM 37.9 °F 31.5 °F 24.6 °F 59% 30.10 in 10.0 mi SW 9.2 mph - N/A   Unknown
4:48 PM 37.4 °F 31.4 °F 24.4 °F 60% 30.10 in 10.0 mi SW 8.1 mph - N/A   Mostly Cloudy
5:12 PM 36.9 °F 30.7 °F 24.3 °F 60% 30.11 in 10.0 mi SW 8.1 mph - N/A   Unknown
5:52 PM 36.0 °F 32.1 °F 23.9 °F 62% 30.11 in 10.0 mi WSW 4.6 mph - N/A   Mostly Cloudy
6:12 PM 34.5 °F 30.4 °F 23.9 °F 65% 30.12 in 10.0 mi WSW 4.6 mph - N/A   Clear
6:32 PM 34.0 °F 29.8 °F 23.9 °F 67% 30.13 in 10.0 mi West 4.6 mph - N/A   Scattered Clouds
6:52 PM 34.7 °F 30.6 °F 24.1 °F 65% 30.13 in - WSW 4.6 mph - N/A   Unknown
7:12 PM 33.4 °F 29.1 °F 23.7 °F 68% 30.13 in 10.0 mi WSW 4.6 mph - N/A   Scattered Clouds
7:32 PM 32.4 °F 26.9 °F 23.7 °F 70% 30.15 in 10.0 mi West 5.8 mph - N/A   Scattered Clouds
7:52 PM 32.0 °F 27.5 °F 23.4 °F 70% 30.15 in 10.0 mi WSW 4.6 mph - N/A   Scattered Clouds
8:12 PM 32.0 °F 28.7 °F 23.5 °F 71% 30.16 in 10.0 mi West 3.5 mph - N/A   Clear
8:32 PM 30.2 °F - 23.0 °F 75% 30.17 in 10.0 mi Calm Calm - N/A   Clear
8:52 PM 28.4 °F - 22.3 °F 78% 30.17 in 10.0 mi Calm Calm - N/A   Clear
9:12 PM 28.0 °F - 22.6 °F 80% 30.18 in 10.0 mi Calm Calm - N/A   Clear
9:32 PM 26.2 °F - 21.2 °F 81% 30.18 in 10.0 mi Calm Calm - N/A   Clear
9:52 PM 27.3 °F - 22.1 °F 81% 30.20 in 10.0 mi Calm Calm - N/A   Clear
10:12 PM 28.2 °F - 22.6 °F 80% 30.20 in 10.0 mi Calm Calm - N/A   Clear
10:32 PM 27.9 °F - 22.1 °F 79% 30.20 in 10.0 mi Calm Calm - N/A   Clear
10:52 PM 28.0 °F - 22.1 °F 78% 30.22 in 10.0 mi Calm Calm - N/A   Clear
11:12 PM 28.6 °F 24.8 °F 22.3 °F 77% 30.22 in 10.0 mi WNW 3.5 mph - N/A   Clear
11:52 PM 28.4 °F 24.6 °F 22.1 °F 77% 30.24 in 10.0 mi West 3.5 mph - N/A   Clear